createdAt,value
2023-03-29T04:45:14.824Z,66.00
2023-03-29T04:47:43.449Z,66.40
2023-03-29T04:50:11.637Z,67.10
2023-03-29T04:52:39.758Z,66.20
2023-03-29T04:55:08.549Z,66.20
2023-03-29T04:57:36.289Z,66.20
2023-03-29T05:00:14.298Z,66.40
2023-03-29T05:02:44.471Z,66.80
2023-03-29T05:05:12.918Z,66.50
2023-03-29T05:07:40.951Z,66.70
2023-03-29T05:10:09.718Z,66.40
2023-03-29T05:12:37.547Z,66.30
2023-03-29T08:42:01.599Z,69.60
2023-03-29T08:51:55.078Z,68.50
2023-03-29T09:09:16.397Z,67.70
2023-03-29T09:11:56.888Z,67.00
2023-03-29T09:14:38.373Z,67.90
2023-03-29T09:17:16.607Z,67.40
2023-03-29T09:19:49.911Z,67.60
2023-03-29T09:22:23.592Z,68.00
2023-03-29T09:25:04.520Z,67.40
2023-03-29T09:27:35.823Z,67.20
2023-03-29T09:30:10.611Z,66.90
2023-03-29T09:32:46.715Z,66.50
2023-03-29T09:35:18.829Z,65.80
2023-03-29T09:37:49.821Z,65.90
2023-03-29T09:40:22.158Z,63.90
2023-03-29T09:42:51.963Z,64.60
2023-03-29T09:45:19.722Z,63.80
2023-03-29T09:47:51.166Z,64.50
2023-03-29T09:50:31.100Z,63.40
2023-03-29T09:53:01.409Z,62.50
2023-03-29T09:55:34.273Z,62.30
2023-03-29T09:58:06.135Z,60.50
2023-03-29T10:00:33.816Z,61.90
2023-03-29T10:03:01.641Z,59.60
2023-03-29T10:05:32.545Z,60.00
2023-03-29T10:08:02.084Z,59.40
2023-03-29T10:10:34.257Z,60.00
2023-03-29T10:13:05.761Z,58.90
2023-03-29T10:15:34.022Z,60.30
2023-03-29T10:18:04.042Z,59.90
2023-03-29T10:20:33.260Z,59.50
2023-03-29T10:23:04.391Z,59.50
2023-03-29T10:25:35.076Z,58.90
2023-03-29T10:28:07.516Z,58.90
2023-03-29T10:30:38.808Z,57.60
2023-03-29T10:33:08.271Z,56.70
2023-03-29T10:35:40.279Z,56.40
2023-03-29T10:38:15.921Z,55.20
2023-03-29T10:40:47.500Z,54.90
2023-03-29T10:43:24.599Z,54.50
2023-03-29T10:45:54.519Z,53.80
2023-03-29T10:48:26.356Z,54.70
2023-03-29T10:50:54.143Z,54.30
2023-03-29T10:53:26.574Z,55.10
2023-03-29T10:56:05.199Z,56.70
2023-03-29T10:58:40.023Z,56.10
2023-03-29T11:01:16.255Z,54.10
2023-03-29T11:04:05.876Z,54.40
2023-03-29T11:06:41.096Z,54.60
2023-03-29T11:09:16.393Z,55.00
2023-03-29T11:12:15.549Z,53.10
2023-03-29T11:14:54.060Z,52.70
2023-03-29T11:17:34.834Z,52.10
2023-03-29T11:20:20.485Z,52.40
2023-03-29T11:22:54.615Z,52.80
2023-03-29T11:25:32.077Z,52.70
2023-03-29T11:28:10.864Z,53.00
2023-03-29T11:30:44.943Z,52.80
2023-03-29T11:33:25.485Z,53.50
2023-03-29T11:35:57.673Z,52.10
2023-03-29T11:38:34.731Z,52.60
2023-03-29T11:41:09.264Z,49.00
2023-03-29T11:43:42.762Z,50.30
2023-03-29T11:46:14.683Z,50.10
2023-03-29T11:48:48.515Z,48.80
2023-03-29T11:51:20.676Z,47.20
2023-03-29T11:53:57.343Z,48.20
2023-03-29T11:56:31.667Z,47.30
2023-03-29T11:59:08.123Z,46.90
2023-03-29T12:01:40.484Z,48.10
2023-03-29T12:04:13.941Z,48.50
2023-03-29T12:06:49.048Z,48.20
2023-03-29T12:09:26.626Z,49.00
2023-03-29T12:12:03.010Z,49.20
2023-03-29T12:14:45.986Z,49.80
2023-03-29T12:17:18.249Z,51.10
2023-03-29T12:19:51.969Z,50.00
2023-03-29T12:22:35.734Z,50.30
2023-03-29T12:25:05.779Z,50.00
2023-03-29T12:27:41.807Z,50.70
2023-03-29T12:30:38.811Z,50.60
2023-03-29T12:33:28.986Z,50.60
2023-03-29T12:36:11.752Z,51.20
2023-03-29T12:38:40.773Z,50.50
2023-03-29T12:41:19.118Z,48.40
2023-03-29T12:43:48.097Z,49.40
2023-03-29T12:46:22.862Z,47.70
2023-03-29T12:48:55.494Z,49.20
2023-03-29T12:51:30.319Z,45.20
2023-03-29T12:54:07.301Z,44.00
2023-03-29T12:56:42.379Z,42.80
2023-03-29T12:59:25.574Z,42.50
2023-03-29T13:02:02.701Z,42.20
2023-03-29T13:04:51.174Z,43.20
2023-03-29T13:07:31.776Z,43.10
2023-03-29T13:10:03.319Z,43.20
2023-03-29T13:12:38.113Z,43.10
2023-03-29T13:15:09.318Z,43.00
2023-03-29T13:17:49.181Z,43.40
2023-03-29T13:20:38.581Z,42.50
2023-03-29T13:23:21.208Z,42.60
2023-03-29T13:26:03.708Z,43.00
2023-03-29T13:28:40.008Z,42.90
2023-03-29T13:31:20.597Z,43.40
2023-03-29T13:34:11.261Z,42.60
2023-03-29T13:36:54.025Z,42.90
2023-03-29T13:39:25.393Z,42.40
2023-03-29T13:41:54.357Z,42.50
2023-03-29T13:44:29.897Z,42.70
2023-03-29T13:47:06.898Z,42.60
2023-03-29T13:49:43.400Z,43.10
2023-03-29T13:52:20.314Z,43.80
2023-03-29T13:54:53.812Z,44.40
2023-03-29T13:57:31.898Z,43.90
2023-03-29T14:00:07.363Z,43.70
2023-03-29T14:02:45.111Z,43.50
2023-03-29T14:05:22.217Z,43.50
2023-03-29T14:07:53.568Z,43.60
2023-03-29T14:10:29.327Z,42.60
2023-03-29T14:13:04.626Z,43.50
2023-03-29T14:15:45.800Z,42.20
2023-03-29T14:18:19.856Z,41.60
2023-03-29T14:20:53.634Z,42.20
2023-03-29T14:23:28.497Z,42.40
2023-03-29T14:26:05.934Z,42.60
2023-03-29T14:28:36.898Z,42.20
2023-03-29T14:31:04.907Z,41.90
2023-03-29T14:33:34.626Z,42.50
2023-03-29T14:36:05.560Z,43.20
2023-03-29T14:38:39.773Z,42.50
2023-03-29T14:41:13.093Z,43.40
2023-03-29T14:43:43.565Z,43.70
2023-03-29T14:46:13.286Z,43.50
2023-03-29T14:48:42.600Z,44.00
2023-03-29T14:51:16.594Z,44.80
2023-03-29T14:53:48.939Z,45.70
2023-03-29T14:56:24.098Z,46.30
2023-03-29T14:58:56.564Z,46.00
2023-03-29T15:01:27.962Z,45.80
2023-03-29T15:04:19.822Z,46.10
2023-03-29T15:06:55.171Z,46.60
2023-03-29T15:09:29.363Z,46.40
2023-03-29T15:11:59.458Z,45.60
2023-03-29T15:14:30.838Z,46.30
2023-03-29T15:17:03.253Z,45.40
2023-03-29T15:19:31.563Z,45.60
2023-03-29T15:22:05.346Z,45.10
2023-03-29T15:24:34.738Z,45.70
2023-03-29T15:27:14.002Z,45.40
2023-03-29T15:29:43.712Z,44.30
2023-03-29T15:32:24.192Z,45.30
2023-03-29T15:37:52.896Z,45.60
2023-03-29T15:40:24.426Z,46.70
2023-03-29T15:42:52.414Z,46.30
2023-03-29T15:45:22.419Z,47.50
2023-03-29T15:47:53.377Z,47.80
2023-03-29T15:50:21.189Z,48.00
2023-03-29T15:52:50.333Z,48.90
2023-03-29T15:55:18.426Z,49.60
2023-03-29T15:57:48.771Z,51.20
2023-03-29T16:00:23.395Z,52.20
2023-03-29T16:02:51.819Z,53.60
2023-03-29T16:05:21.003Z,55.50
2023-03-29T16:07:50.338Z,56.60
2023-03-29T16:10:18.116Z,57.70
2023-03-29T16:12:46.097Z,59.20
2023-03-29T16:15:18.859Z,59.60
2023-03-29T16:17:50.404Z,61.80
2023-03-29T16:20:20.153Z,64.80
2023-03-29T16:22:48.938Z,67.00
2023-03-29T16:25:22.813Z,70.30
2023-03-29T16:27:51.467Z,71.30
2023-03-29T16:30:19.917Z,73.00
2023-03-29T16:32:59.553Z,74.50
2023-03-29T16:35:29.321Z,75.90
2023-03-29T16:37:57.375Z,75.20
2023-03-29T16:40:26.713Z,76.80
2023-03-29T16:42:54.605Z,77.40
2023-03-29T16:45:27.898Z,76.70
2023-03-29T16:47:57.757Z,77.20
2023-03-29T16:51:00.380Z,77.00
2023-03-29T16:53:28.511Z,76.80
2023-03-29T16:55:57.818Z,76.90
2023-03-29T16:58:34.055Z,75.90
2023-03-29T17:01:09.830Z,76.10
2023-03-29T17:03:38.020Z,76.10
2023-03-29T17:06:06.776Z,76.30
2023-03-29T17:08:35.597Z,76.80
2023-03-29T17:11:06.230Z,76.50
2023-03-29T17:13:34.545Z,76.70
2023-03-29T17:16:02.730Z,77.90
2023-03-29T17:18:30.895Z,79.30
2023-03-29T17:20:59.711Z,77.10
2023-03-29T17:23:27.742Z,77.40
2023-03-29T17:25:56.696Z,78.50
2023-03-29T17:28:25.863Z,78.60
2023-03-29T17:30:53.773Z,78.60
2023-03-29T17:33:22.796Z,78.20
2023-03-29T17:35:50.657Z,78.20
2023-03-29T17:38:19.466Z,78.60
2023-03-29T17:40:53.259Z,78.60
2023-03-29T17:43:21.292Z,78.20
2023-03-29T17:45:52.785Z,78.50
2023-03-29T17:48:20.646Z,78.30
2023-03-29T17:50:48.712Z,78.30
2023-03-29T17:53:16.525Z,78.60
2023-03-29T17:55:44.212Z,78.40
2023-03-29T17:58:12.310Z,78.50
2023-03-29T18:00:41.327Z,78.70
2023-03-29T18:03:10.483Z,78.40
2023-03-29T18:05:38.292Z,78.60
2023-03-29T18:08:09.427Z,77.80
2023-03-29T18:10:37.569Z,77.10
2023-03-29T18:13:05.323Z,76.20
2023-03-29T18:15:33.208Z,75.90
2023-03-29T18:18:01.339Z,74.30
2023-03-29T18:20:31.430Z,74.10
2023-03-29T18:22:59.186Z,74.00
2023-03-29T18:25:27.087Z,74.20
2023-03-29T18:27:54.926Z,73.60
2023-03-29T18:30:22.814Z,73.50
2023-03-29T18:32:50.796Z,73.80
2023-03-29T18:35:18.587Z,74.20
2023-03-29T18:37:47.890Z,74.10
2023-03-29T18:40:20.069Z,74.00
2023-03-29T18:42:47.898Z,74.60
2023-03-29T18:45:15.862Z,74.00
2023-03-29T18:47:43.676Z,74.20
2023-03-29T18:50:13.202Z,73.70
2023-03-29T18:52:41.005Z,73.60
2023-03-29T18:55:10.862Z,73.10
2023-03-29T18:57:38.795Z,73.00
2023-03-29T19:00:12.337Z,72.70
2023-03-29T19:02:40.434Z,72.70
2023-03-29T19:05:08.961Z,72.40
2023-03-29T19:07:38.551Z,73.10
2023-03-29T19:10:09.846Z,72.30
2023-03-29T19:12:39.000Z,72.50
2023-03-29T19:15:07.996Z,72.10
2023-03-29T19:17:35.846Z,72.50
2023-03-29T19:20:05.403Z,72.90
2023-03-29T19:22:35.592Z,72.30
2023-03-29T19:25:04.546Z,72.30
2023-03-29T19:27:32.399Z,72.50
2023-03-29T19:30:02.251Z,72.90
2023-03-29T19:32:33.212Z,72.70
2023-03-29T19:35:01.862Z,72.70
2023-03-29T19:37:29.649Z,72.60
2023-03-29T19:39:57.694Z,73.00
2023-03-29T19:42:25.660Z,74.40
2023-03-29T19:44:53.390Z,73.50
2023-03-29T19:47:22.498Z,73.20
2023-03-29T19:49:52.443Z,74.20
2023-03-29T19:52:24.096Z,74.60
2023-03-29T19:54:53.245Z,74.50
2023-03-29T19:57:24.803Z,74.50
2023-03-29T19:59:54.036Z,74.40
2023-03-29T20:02:23.130Z,73.20
2023-03-29T20:04:50.860Z,73.10
2023-03-29T20:07:31.626Z,73.30
2023-03-29T20:10:01.582Z,72.90
2023-03-29T20:12:29.347Z,72.80
2023-03-29T20:14:57.111Z,72.50
2023-03-29T20:17:26.274Z,72.50
2023-03-29T20:19:55.375Z,72.90
2023-03-29T20:22:25.900Z,74.80
2023-03-29T20:24:53.601Z,75.40
